sensor_id;sensor_type;location;lat;lon;timestamp;temperature;humidity
51021;DHT22;38907;45.562;8.856;2023-07-20T00:02:51;27.00;99.90
51021;DHT22;38907;45.562;8.856;2023-07-20T00:07:54;26.90;99.90
51021;DHT22;38907;45.562;8.856;2023-07-20T00:12:57;27.10;99.90
51021;DHT22;38907;45.562;8.856;2023-07-20T00:17:59;26.90;99.90
51021;DHT22;38907;45.562;8.856;2023-07-20T00:23:02;26.90;99.90
51021;DHT22;38907;45.562;8.856;2023-07-20T00:28:04;27.30;99.90
51021;DHT22;38907;45.562;8.856;2023-07-20T00:33:09;27.60;99.90
51021;DHT22;38907;45.562;8.856;2023-07-20T00:38:13;27.50;99.90
51021;DHT22;38907;45.562;8.856;2023-07-20T00:43:15;27.20;99.90
51021;DHT22;38907;45.562;8.856;2023-07-20T00:48:17;27.10;99.90
51021;DHT22;38907;45.562;8.856;2023-07-20T00:53:21;27.30;99.90
51021;DHT22;38907;45.562;8.856;2023-07-20T00:58:23;27.30;99.90
51021;DHT22;38907;45.562;8.856;2023-07-20T01:03:25;27.30;99.90
51021;DHT22;38907;45.562;8.856;2023-07-20T01:08:31;27.30;99.90
51021;DHT22;38907;45.562;8.856;2023-07-20T01:13:34;27.30;99.90
51021;DHT22;38907;45.562;8.856;2023-07-20T01:18:36;27.20;99.90
51021;DHT22;38907;45.562;8.856;2023-07-20T01:24:07;27.00;99.90
51021;DHT22;38907;45.562;8.856;2023-07-20T01:29:30;26.80;99.90
51021;DHT22;38907;45.562;8.856;2023-07-20T01:34:35;26.90;99.90
51021;DHT22;38907;45.562;8.856;2023-07-20T01:39:38;26.90;99.90
51021;DHT22;38907;45.562;8.856;2023-07-20T01:44:40;27.00;99.90
51021;DHT22;38907;45.562;8.856;2023-07-20T01:49:48;26.80;99.90
51021;DHT22;38907;45.562;8.856;2023-07-20T01:54:50;26.80;99.90
51021;DHT22;38907;45.562;8.856;2023-07-20T01:59:52;26.70;99.90
51021;DHT22;38907;45.562;8.856;2023-07-20T02:04:55;26.60;99.90
51021;DHT22;38907;45.562;8.856;2023-07-20T02:09:57;26.70;99.90
51021;DHT22;38907;45.562;8.856;2023-07-20T02:14:59;26.60;99.90
51021;DHT22;38907;45.562;8.856;2023-07-20T02:20:02;26.60;99.90
51021;DHT22;38907;45.562;8.856;2023-07-20T02:25:05;26.50;99.90
51021;DHT22;38907;45.562;8.856;2023-07-20T02:30:08;26.40;99.90
51021;DHT22;38907;45.562;8.856;2023-07-20T02:35:12;26.20;99.90
51021;DHT22;38907;45.562;8.856;2023-07-20T02:40:14;26.10;99.90
51021;DHT22;38907;45.562;8.856;2023-07-20T02:45:16;26.10;99.90
51021;DHT22;38907;45.562;8.856;2023-07-20T02:50:19;26.10;99.90
51021;DHT22;38907;45.562;8.856;2023-07-20T02:55:21;26.10;99.90
51021;DHT22;38907;45.562;8.856;2023-07-20T03:00:23;25.90;99.90
51021;DHT22;38907;45.562;8.856;2023-07-20T03:05:26;25.80;99.90
51021;DHT22;38907;45.562;8.856;2023-07-20T03:10:28;25.70;99.90
51021;DHT22;38907;45.562;8.856;2023-07-20T03:15:30;25.70;99.90
51021;DHT22;38907;45.562;8.856;2023-07-20T03:20:35;25.40;99.90
51021;DHT22;38907;45.562;8.856;2023-07-20T03:25:37;25.30;99.90
51021;DHT22;38907;45.562;8.856;2023-07-20T03:30:39;25.20;99.90
51021;DHT22;38907;45.562;8.856;2023-07-20T03:35:44;25.00;99.90
51021;DHT22;38907;45.562;8.856;2023-07-20T03:40:49;25.30;99.90
51021;DHT22;38907;45.562;8.856;2023-07-20T03:45:52;25.50;99.90
51021;DHT22;38907;45.562;8.856;2023-07-20T03:50:55;25.50;99.90
51021;DHT22;38907;45.562;8.856;2023-07-20T03:55:57;25.50;99.90
51021;DHT22;38907;45.562;8.856;2023-07-20T04:00:59;25.50;99.90
51021;DHT22;38907;45.562;8.856;2023-07-20T04:06:02;25.30;99.90
51021;DHT22;38907;45.562;8.856;2023-07-20T04:11:04;25.20;99.90
51021;DHT22;38907;45.562;8.856;2023-07-20T04:16:06;25.00;99.90
51021;DHT22;38907;45.562;8.856;2023-07-20T04:21:09;24.90;99.90
51021;DHT22;38907;45.562;8.856;2023-07-20T04:26:11;24.80;99.90
51021;DHT22;38907;45.562;8.856;2023-07-20T04:31:15;24.80;99.90
51021;DHT22;38907;45.562;8.856;2023-07-20T04:36:19;24.60;99.90
51021;DHT22;38907;45.562;8.856;2023-07-20T04:41:20;24.30;99.90
51021;DHT22;38907;45.562;8.856;2023-07-20T04:46:22;24.30;99.90
51021;DHT22;38907;45.562;8.856;2023-07-20T04:51:26;24.50;99.90
51021;DHT22;38907;45.562;8.856;2023-07-20T04:56:27;24.60;99.90
51021;DHT22;38907;45.562;8.856;2023-07-20T05:01:29;24.40;99.90
51021;DHT22;38907;45.562;8.856;2023-07-20T05:06:32;24.50;99.90
51021;DHT22;38907;45.562;8.856;2023-07-20T05:11:34;24.50;99.90
51021;DHT22;38907;45.562;8.856;2023-07-20T05:16:36;24.50;99.90
51021;DHT22;38907;45.562;8.856;2023-07-20T05:21:40;24.60;99.90
51021;DHT22;38907;45.562;8.856;2023-07-20T05:26:41;24.60;99.90
51021;DHT22;38907;45.562;8.856;2023-07-20T05:31:43;24.70;99.90
51021;DHT22;38907;45.562;8.856;2023-07-20T05:36:46;24.80;99.90
51021;DHT22;38907;45.562;8.856;2023-07-20T05:41:48;25.10;99.90
51021;DHT22;38907;45.562;8.856;2023-07-20T05:46:50;25.30;99.90
51021;DHT22;38907;45.562;8.856;2023-07-20T05:51:54;25.50;99.90
51021;DHT22;38907;45.562;8.856;2023-07-20T05:56:56;25.70;99.90
51021;DHT22;38907;45.562;8.856;2023-07-20T06:01:58;25.80;99.90
51021;DHT22;38907;45.562;8.856;2023-07-20T06:07:01;25.90;99.90
51021;DHT22;38907;45.562;8.856;2023-07-20T06:12:04;25.80;99.90
51021;DHT22;38907;45.562;8.856;2023-07-20T06:17:06;25.90;99.90
51021;DHT22;38907;45.562;8.856;2023-07-20T06:22:09;26.00;99.90
51021;DHT22;38907;45.562;8.856;2023-07-20T06:27:11;26.10;99.90
51021;DHT22;38907;45.562;8.856;2023-07-20T06:32:13;26.20;99.90
51021;DHT22;38907;45.562;8.856;2023-07-20T06:37:17;26.30;99.90
51021;DHT22;38907;45.562;8.856;2023-07-20T06:42:20;26.50;99.90
51021;DHT22;38907;45.562;8.856;2023-07-20T06:47:22;26.60;99.90
51021;DHT22;38907;45.562;8.856;2023-07-20T06:52:25;26.70;99.90
51021;DHT22;38907;45.562;8.856;2023-07-20T06:57:27;26.70;99.90
51021;DHT22;38907;45.562;8.856;2023-07-20T07:02:29;26.90;99.90
51021;DHT22;38907;45.562;8.856;2023-07-20T07:07:32;27.00;99.90
51021;DHT22;38907;45.562;8.856;2023-07-20T07:12:34;27.20;99.90
51021;DHT22;38907;45.562;8.856;2023-07-20T07:17:36;27.20;99.90
51021;DHT22;38907;45.562;8.856;2023-07-20T07:22:40;27.40;99.90
51021;DHT22;38907;45.562;8.856;2023-07-20T07:27:44;27.50;99.90
51021;DHT22;38907;45.562;8.856;2023-07-20T07:32:46;27.60;99.90
51021;DHT22;38907;45.562;8.856;2023-07-20T07:37:49;27.70;99.90
51021;DHT22;38907;45.562;8.856;2023-07-20T07:42:52;27.80;99.90
51021;DHT22;38907;45.562;8.856;2023-07-20T07:47:53;27.80;99.90
51021;DHT22;38907;45.562;8.856;2023-07-20T07:52:56;27.90;99.90
51021;DHT22;38907;45.562;8.856;2023-07-20T07:57:58;28.00;99.90
51021;DHT22;38907;45.562;8.856;2023-07-20T08:03:00;28.10;99.90
51021;DHT22;38907;45.562;8.856;2023-07-20T08:08:04;28.20;99.90
51021;DHT22;38907;45.562;8.856;2023-07-20T08:13:06;28.30;99.90
51021;DHT22;38907;45.562;8.856;2023-07-20T08:18:07;28.40;99.90
51021;DHT22;38907;45.562;8.856;2023-07-20T08:23:11;28.50;99.90
51021;DHT22;38907;45.562;8.856;2023-07-20T08:28:14;28.60;99.90
51021;DHT22;38907;45.562;8.856;2023-07-20T08:33:17;28.60;99.90
51021;DHT22;38907;45.562;8.856;2023-07-20T08:38:21;28.50;99.90
51021;DHT22;38907;45.562;8.856;2023-07-20T08:43:23;28.70;99.90
51021;DHT22;38907;45.562;8.856;2023-07-20T08:48:27;28.80;99.90
51021;DHT22;38907;45.562;8.856;2023-07-20T08:53:31;28.90;99.90
51021;DHT22;38907;45.562;8.856;2023-07-20T08:58:34;29.00;99.90
51021;DHT22;38907;45.562;8.856;2023-07-20T09:03:36;29.10;99.90
51021;DHT22;38907;45.562;8.856;2023-07-20T09:08:41;29.20;99.90
51021;DHT22;38907;45.562;8.856;2023-07-20T09:13:44;29.20;99.90
51021;DHT22;38907;45.562;8.856;2023-07-20T09:18:46;29.30;99.90
51021;DHT22;38907;45.562;8.856;2023-07-20T09:23:56;29.40;99.90
51021;DHT22;38907;45.562;8.856;2023-07-20T09:28:58;29.50;99.90
51021;DHT22;38907;45.562;8.856;2023-07-20T09:34:00;29.60;99.90
51021;DHT22;38907;45.562;8.856;2023-07-20T09:39:04;29.70;99.90
51021;DHT22;38907;45.562;8.856;2023-07-20T09:44:07;29.50;99.90
51021;DHT22;38907;45.562;8.856;2023-07-20T09:49:10;29.70;99.90
51021;DHT22;38907;45.562;8.856;2023-07-20T09:54:14;29.90;99.90
51021;DHT22;38907;45.562;8.856;2023-07-20T09:59:16;29.80;99.90
51021;DHT22;38907;45.562;8.856;2023-07-20T10:04:19;29.80;99.90
51021;DHT22;38907;45.562;8.856;2023-07-20T10:09:25;29.90;99.90
51021;DHT22;38907;45.562;8.856;2023-07-20T10:14:28;30.10;99.90
51021;DHT22;38907;45.562;8.856;2023-07-20T10:19:39;30.00;99.90
51021;DHT22;38907;45.562;8.856;2023-07-20T10:24:46;30.00;99.90
51021;DHT22;38907;45.562;8.856;2023-07-20T10:29:49;30.00;99.90
51021;DHT22;38907;45.562;8.856;2023-07-20T10:34:52;29.90;99.90
51021;DHT22;38907;45.562;8.856;2023-07-20T10:39:56;30.10;99.90
51021;DHT22;38907;45.562;8.856;2023-07-20T10:45:01;30.30;99.90
51021;DHT22;38907;45.562;8.856;2023-07-20T10:50:03;30.40;99.90
51021;DHT22;38907;45.562;8.856;2023-07-20T10:55:17;30.50;99.90
51021;DHT22;38907;45.562;8.856;2023-07-20T11:00:20;30.50;99.90
51021;DHT22;38907;45.562;8.856;2023-07-20T11:05:37;30.50;99.90
51021;DHT22;38907;45.562;8.856;2023-07-20T11:10:40;30.50;99.90
51021;DHT22;38907;45.562;8.856;2023-07-20T11:15:46;30.80;99.90
51021;DHT22;38907;45.562;8.856;2023-07-20T11:20:50;30.90;99.90
51021;DHT22;38907;45.562;8.856;2023-07-20T11:25:54;30.80;98.60
51021;DHT22;38907;45.562;8.856;2023-07-20T11:30:56;30.90;99.30
51021;DHT22;38907;45.562;8.856;2023-07-20T11:35:58;31.10;98.50
51021;DHT22;38907;45.562;8.856;2023-07-20T11:41:02;31.20;98.90
51021;DHT22;38907;45.562;8.856;2023-07-20T11:46:05;31.10;97.50
51021;DHT22;38907;45.562;8.856;2023-07-20T11:51:13;31.10;96.30
51021;DHT22;38907;45.562;8.856;2023-07-20T11:56:16;31.30;97.00
51021;DHT22;38907;45.562;8.856;2023-07-20T12:01:19;31.30;96.60
51021;DHT22;38907;45.562;8.856;2023-07-20T12:06:23;31.30;96.70
51021;DHT22;38907;45.562;8.856;2023-07-20T12:11:34;31.50;96.80
51021;DHT22;38907;45.562;8.856;2023-07-20T12:16:36;31.60;95.50
51021;DHT22;38907;45.562;8.856;2023-07-20T12:21:41;31.40;94.70
51021;DHT22;38907;45.562;8.856;2023-07-20T12:26:44;31.30;95.80
51021;DHT22;38907;45.562;8.856;2023-07-20T12:31:46;31.40;94.20
51021;DHT22;38907;45.562;8.856;2023-07-20T12:36:48;31.50;93.60
51021;DHT22;38907;45.562;8.856;2023-07-20T12:41:51;31.60;93.60
51021;DHT22;38907;45.562;8.856;2023-07-20T12:46:53;31.70;95.10
51021;DHT22;38907;45.562;8.856;2023-07-20T12:51:55;31.70;94.30
51021;DHT22;38907;45.562;8.856;2023-07-20T12:56:58;31.80;94.40
51021;DHT22;38907;45.562;8.856;2023-07-20T13:02:00;31.90;93.40
51021;DHT22;38907;45.562;8.856;2023-07-20T13:07:02;31.90;93.80
51021;DHT22;38907;45.562;8.856;2023-07-20T13:12:06;31.80;93.40
51021;DHT22;38907;45.562;8.856;2023-07-20T13:17:08;31.90;93.50
51021;DHT22;38907;45.562;8.856;2023-07-20T13:22:10;32.00;92.90
51021;DHT22;38907;45.562;8.856;2023-07-20T13:27:16;32.10;93.60
51021;DHT22;38907;45.562;8.856;2023-07-20T13:32:18;32.20;92.80
51021;DHT22;38907;45.562;8.856;2023-07-20T13:37:20;32.40;92.70
51021;DHT22;38907;45.562;8.856;2023-07-20T13:42:24;32.40;91.70
51021;DHT22;38907;45.562;8.856;2023-07-20T13:47:26;32.40;93.00
51021;DHT22;38907;45.562;8.856;2023-07-20T13:52:28;32.30;93.60
51021;DHT22;38907;45.562;8.856;2023-07-20T13:57:32;32.20;95.90
51021;DHT22;38907;45.562;8.856;2023-07-20T14:02:33;32.30;95.90
51021;DHT22;38907;45.562;8.856;2023-07-20T14:07:35;32.10;93.70
51021;DHT22;38907;45.562;8.856;2023-07-20T14:12:39;32.20;95.20
51021;DHT22;38907;45.562;8.856;2023-07-20T14:17:40;32.50;97.70
51021;DHT22;38907;45.562;8.856;2023-07-20T14:22:42;32.40;98.40
51021;DHT22;38907;45.562;8.856;2023-07-20T14:27:46;32.30;98.10
51021;DHT22;38907;45.562;8.856;2023-07-20T14:32:48;32.30;98.50
51021;DHT22;38907;45.562;8.856;2023-07-20T14:37:50;32.30;97.90
51021;DHT22;38907;45.562;8.856;2023-07-20T14:42:53;32.40;98.20
51021;DHT22;38907;45.562;8.856;2023-07-20T14:47:55;32.20;98.60
51021;DHT22;38907;45.562;8.856;2023-07-20T14:52:59;32.50;98.00
51021;DHT22;38907;45.562;8.856;2023-07-20T14:58:02;32.50;98.20
51021;DHT22;38907;45.562;8.856;2023-07-20T15:03:04;32.70;97.30
51021;DHT22;38907;45.562;8.856;2023-07-20T15:08:06;32.80;97.10
51021;DHT22;38907;45.562;8.856;2023-07-20T15:13:10;32.90;97.30
51021;DHT22;38907;45.562;8.856;2023-07-20T15:18:12;32.80;97.10
51021;DHT22;38907;45.562;8.856;2023-07-20T15:23:14;32.80;96.90
51021;DHT22;38907;45.562;8.856;2023-07-20T15:28:17;32.80;96.90
51021;DHT22;38907;45.562;8.856;2023-07-20T15:33:19;33.00;96.50
51021;DHT22;38907;45.562;8.856;2023-07-20T15:38:21;33.10;96.30
51021;DHT22;38907;45.562;8.856;2023-07-20T15:43:24;33.20;96.50
51021;DHT22;38907;45.562;8.856;2023-07-20T15:48:26;33.20;95.70
51021;DHT22;38907;45.562;8.856;2023-07-20T15:53:28;33.40;95.60
51021;DHT22;38907;45.562;8.856;2023-07-20T15:58:31;33.60;95.10
51021;DHT22;38907;45.562;8.856;2023-07-20T16:03:33;33.50;94.60
51021;DHT22;38907;45.562;8.856;2023-07-20T16:08:35;33.70;94.50
51021;DHT22;38907;45.562;8.856;2023-07-20T16:13:38;33.70;94.10
51021;DHT22;38907;45.562;8.856;2023-07-20T16:18:41;33.60;93.60
51021;DHT22;38907;45.562;8.856;2023-07-20T16:23:43;33.60;92.90
51021;DHT22;38907;45.562;8.856;2023-07-20T16:28:46;33.70;93.00
51021;DHT22;38907;45.562;8.856;2023-07-20T16:33:48;33.70;92.00
51021;DHT22;38907;45.562;8.856;2023-07-20T16:38:50;33.70;91.50
51021;DHT22;38907;45.562;8.856;2023-07-20T16:43:53;33.70;91.40
51021;DHT22;38907;45.562;8.856;2023-07-20T16:48:55;33.70;91.40
51021;DHT22;38907;45.562;8.856;2023-07-20T16:53:57;33.40;90.40
51021;DHT22;38907;45.562;8.856;2023-07-20T16:59:01;33.00;90.90
51021;DHT22;38907;45.562;8.856;2023-07-20T17:04:03;32.80;91.00
51021;DHT22;38907;45.562;8.856;2023-07-20T17:09:05;32.50;90.90
51021;DHT22;38907;45.562;8.856;2023-07-20T17:14:09;32.30;91.30
51021;DHT22;38907;45.562;8.856;2023-07-20T17:19:11;32.10;92.50
51021;DHT22;38907;45.562;8.856;2023-07-20T17:24:13;32.10;92.80
51021;DHT22;38907;45.562;8.856;2023-07-20T17:29:22;32.00;91.40
51021;DHT22;38907;45.562;8.856;2023-07-20T17:34:26;31.90;92.00
51021;DHT22;38907;45.562;8.856;2023-07-20T17:39:28;31.80;92.50
51021;DHT22;38907;45.562;8.856;2023-07-20T17:44:33;31.70;92.20
51021;DHT22;38907;45.562;8.856;2023-07-20T17:49:35;31.70;92.90
51021;DHT22;38907;45.562;8.856;2023-07-20T17:54:37;31.60;93.80
51021;DHT22;38907;45.562;8.856;2023-07-20T17:59:40;31.60;94.40
51021;DHT22;38907;45.562;8.856;2023-07-20T18:04:43;31.50;94.60
51021;DHT22;38907;45.562;8.856;2023-07-20T18:09:45;31.50;94.60
51021;DHT22;38907;45.562;8.856;2023-07-20T18:14:48;31.40;94.50
51021;DHT22;38907;45.562;8.856;2023-07-20T18:19:50;31.30;94.60
51021;DHT22;38907;45.562;8.856;2023-07-20T18:24:52;31.30;95.40
51021;DHT22;38907;45.562;8.856;2023-07-20T18:29:55;31.10;95.90
51021;DHT22;38907;45.562;8.856;2023-07-20T18:34:57;31.10;95.80
51021;DHT22;38907;45.562;8.856;2023-07-20T18:39:59;31.00;95.80
51021;DHT22;38907;45.562;8.856;2023-07-20T18:45:03;30.90;95.90
51021;DHT22;38907;45.562;8.856;2023-07-20T18:50:06;30.70;95.60
51021;DHT22;38907;45.562;8.856;2023-07-20T18:55:09;30.70;96.20
51021;DHT22;38907;45.562;8.856;2023-07-20T19:00:14;30.60;96.40
51021;DHT22;38907;45.562;8.856;2023-07-20T19:05:18;30.50;96.90
51021;DHT22;38907;45.562;8.856;2023-07-20T19:10:20;30.40;99.40
51021;DHT22;38907;45.562;8.856;2023-07-20T19:15:24;29.80;99.90
51021;DHT22;38907;45.562;8.856;2023-07-20T19:20:26;29.70;99.90
51021;DHT22;38907;45.562;8.856;2023-07-20T19:25:28;29.60;99.90
51021;DHT22;38907;45.562;8.856;2023-07-20T19:30:33;29.60;99.90
51021;DHT22;38907;45.562;8.856;2023-07-20T19:35:36;29.40;99.90
51021;DHT22;38907;45.562;8.856;2023-07-20T19:40:39;29.30;99.90
51021;DHT22;38907;45.562;8.856;2023-07-20T19:45:42;29.40;99.90
51021;DHT22;38907;45.562;8.856;2023-07-20T19:50:44;29.60;99.90
51021;DHT22;38907;45.562;8.856;2023-07-20T19:55:48;29.70;99.90
51021;DHT22;38907;45.562;8.856;2023-07-20T20:00:52;29.70;99.90
51021;DHT22;38907;45.562;8.856;2023-07-20T20:05:54;29.50;99.90
51021;DHT22;38907;45.562;8.856;2023-07-20T20:10:55;29.30;99.90
51021;DHT22;38907;45.562;8.856;2023-07-20T20:15:59;28.80;99.90
51021;DHT22;38907;45.562;8.856;2023-07-20T20:21:01;28.70;99.90
51021;DHT22;38907;45.562;8.856;2023-07-20T20:26:05;28.70;99.90
51021;DHT22;38907;45.562;8.856;2023-07-20T20:31:08;28.50;99.90
51021;DHT22;38907;45.562;8.856;2023-07-20T20:36:11;28.20;99.90
51021;DHT22;38907;45.562;8.856;2023-07-20T20:41:13;28.10;99.90
51021;DHT22;38907;45.562;8.856;2023-07-20T20:46:17;28.20;99.90
51021;DHT22;38907;45.562;8.856;2023-07-20T20:51:20;28.20;99.90
51021;DHT22;38907;45.562;8.856;2023-07-20T20:56:22;28.30;99.90
51021;DHT22;38907;45.562;8.856;2023-07-20T21:01:26;28.20;99.90
51021;DHT22;38907;45.562;8.856;2023-07-20T21:06:28;28.20;99.90
51021;DHT22;38907;45.562;8.856;2023-07-20T21:11:30;28.20;99.90
51021;DHT22;38907;45.562;8.856;2023-07-20T21:16:33;28.30;99.90
51021;DHT22;38907;45.562;8.856;2023-07-20T21:21:35;28.20;99.90
51021;DHT22;38907;45.562;8.856;2023-07-20T21:26:37;27.90;99.90
51021;DHT22;38907;45.562;8.856;2023-07-20T21:31:42;27.80;99.90
51021;DHT22;38907;45.562;8.856;2023-07-20T21:36:45;27.60;99.90
51021;DHT22;38907;45.562;8.856;2023-07-20T21:41:47;27.50;99.90
51021;DHT22;38907;45.562;8.856;2023-07-20T21:46:51;27.70;99.90
51021;DHT22;38907;45.562;8.856;2023-07-20T21:51:52;27.80;99.90
51021;DHT22;38907;45.562;8.856;2023-07-20T21:56:54;27.50;99.90
51021;DHT22;38907;45.562;8.856;2023-07-20T22:01:57;27.40;99.90
51021;DHT22;38907;45.562;8.856;2023-07-20T22:06:59;27.20;99.90
51021;DHT22;38907;45.562;8.856;2023-07-20T22:12:01;27.20;99.90
51021;DHT22;38907;45.562;8.856;2023-07-20T22:17:05;27.20;99.90
51021;DHT22;38907;45.562;8.856;2023-07-20T22:22:08;26.90;99.90
51021;DHT22;38907;45.562;8.856;2023-07-20T22:27:10;26.80;99.90
51021;DHT22;38907;45.562;8.856;2023-07-20T22:32:13;26.50;99.90
51021;DHT22;38907;45.562;8.856;2023-07-20T22:37:15;26.40;99.90
51021;DHT22;38907;45.562;8.856;2023-07-20T22:42:18;26.40;99.90
51021;DHT22;38907;45.562;8.856;2023-07-20T22:47:21;26.60;99.90
51021;DHT22;38907;45.562;8.856;2023-07-20T22:52:23;26.40;99.90
51021;DHT22;38907;45.562;8.856;2023-07-20T22:57:25;26.40;99.90
51021;DHT22;38907;45.562;8.856;2023-07-20T23:02:28;26.50;99.90
51021;DHT22;38907;45.562;8.856;2023-07-20T23:07:30;26.40;99.90
51021;DHT22;38907;45.562;8.856;2023-07-20T23:12:32;26.30;99.90
51021;DHT22;38907;45.562;8.856;2023-07-20T23:17:35;26.40;99.90
51021;DHT22;38907;45.562;8.856;2023-07-20T23:22:37;26.00;99.90
51021;DHT22;38907;45.562;8.856;2023-07-20T23:27:39;26.00;99.90
51021;DHT22;38907;45.562;8.856;2023-07-20T23:32:42;26.10;99.90
51021;DHT22;38907;45.562;8.856;2023-07-20T23:37:45;26.20;99.90
51021;DHT22;38907;45.562;8.856;2023-07-20T23:42:47;25.90;99.90
51021;DHT22;38907;45.562;8.856;2023-07-20T23:47:50;25.90;99.90
51021;DHT22;38907;45.562;8.856;2023-07-20T23:52:52;26.10;99.90
51021;DHT22;38907;45.562;8.856;2023-07-20T23:57:55;26.20;99.90
